Del Rio, Texas
Current Conditions -  °F | °C
As of 5:53 AM on Sunday 21 Dec 2014 (Local Time) from KDRT Reporting Station
Overcast Overcast  
Wind Chill: 45°   Ceiling: 700
Heat Index: 49°   Visibility: 7mi
Dew Point: 46°   Wind: 9mph
Humidity: 90%   Direction: 130°SE
Pressure: 30.06"   Gusts: NA
Location:  29.37°N, 100.89°W
Report Text: KDRT 211153Z AUTO 13008KT 7SM OVC007 09/08 A3006 RMK AO2 CIG 006V011 SLP173 T00940078 10106 20094 56011
Loading
Personal Weather Stations






























Interactive Weather Map New forecast layout! Learn more

10-Day Weather Forecast

Advertisements
Track Severe Weather on mobile